sensor_id;sensor_type;location;lat;lon;timestamp;pressure;altitude;pressure_sealevel;temperature;humidity
19831;BME280;10076;52.008;4.708;2024-02-21T00:00:50;102185.31;;;11.01;100.00
19831;BME280;10076;52.008;4.708;2024-02-21T00:03:15;102178.00;;;11.06;100.00
19831;BME280;10076;52.008;4.708;2024-02-21T00:05:40;102183.06;;;10.94;100.00
19831;BME280;10076;52.008;4.708;2024-02-21T00:08:06;102174.56;;;11.04;100.00
19831;BME280;10076;52.008;4.708;2024-02-21T00:10:31;102162.53;;;10.99;100.00
19831;BME280;10076;52.008;4.708;2024-02-21T00:12:57;102164.78;;;11.06;100.00
19831;BME280;10076;52.008;4.708;2024-02-21T00:15:24;102165.88;;;11.02;100.00
19831;BME280;10076;52.008;4.708;2024-02-21T00:17:49;102153.19;;;11.08;100.00
19831;BME280;10076;52.008;4.708;2024-02-21T00:20:15;102175.25;;;11.07;100.00
19831;BME280;10076;52.008;4.708;2024-02-21T00:22:40;102181.81;;;11.17;100.00
19831;BME280;10076;52.008;4.708;2024-02-21T00:25:06;102166.31;;;11.10;100.00
19831;BME280;10076;52.008;4.708;2024-02-21T00:27:32;102150.94;;;11.18;100.00
19831;BME280;10076;52.008;4.708;2024-02-21T00:29:57;102151.09;;;10.98;100.00
19831;BME280;10076;52.008;4.708;2024-02-21T00:32:23;102154.69;;;10.97;100.00
19831;BME280;10076;52.008;4.708;2024-02-21T00:37:16;102181.25;;;11.11;100.00
19831;BME280;10076;52.008;4.708;2024-02-21T00:39:41;102169.13;;;11.07;100.00
19831;BME280;10076;52.008;4.708;2024-02-21T00:42:07;102168.06;;;10.94;100.00
19831;BME280;10076;52.008;4.708;2024-02-21T00:44:33;102175.81;;;11.14;100.00
19831;BME280;10076;52.008;4.708;2024-02-21T00:46:58;102160.28;;;11.08;100.00
19831;BME280;10076;52.008;4.708;2024-02-21T00:49:24;102163.69;;;11.10;100.00
19831;BME280;10076;52.008;4.708;2024-02-21T00:51:49;102167.50;;;11.04;100.00
19831;BME280;10076;52.008;4.708;2024-02-21T00:54:14;102176.91;;;11.10;100.00
19831;BME280;10076;52.008;4.708;2024-02-21T00:56:39;102170.28;;;11.18;100.00
19831;BME280;10076;52.008;4.708;2024-02-21T00:59:05;102171.06;;;11.20;100.00
19831;BME280;10076;52.008;4.708;2024-02-21T01:01:30;102159.34;;;11.26;100.00
19831;BME280;10076;52.008;4.708;2024-02-21T01:03:55;102150.47;;;11.10;100.00
19831;BME280;10076;52.008;4.708;2024-02-21T01:06:21;102146.97;;;11.09;100.00
19831;BME280;10076;52.008;4.708;2024-02-21T01:08:47;102153.94;;;11.27;100.00
19831;BME280;10076;52.008;4.708;2024-02-21T01:11:16;102151.84;;;11.17;100.00
19831;BME280;10076;52.008;4.708;2024-02-21T01:13:41;102149.22;;;11.17;100.00
19831;BME280;10076;52.008;4.708;2024-02-21T01:16:07;102140.72;;;11.27;100.00
19831;BME280;10076;52.008;4.708;2024-02-21T01:18:38;102148.75;;;11.26;100.00
19831;BME280;10076;52.008;4.708;2024-02-21T01:21:07;102137.31;;;11.25;100.00
19831;BME280;10076;52.008;4.708;2024-02-21T01:23:34;102133.41;;;11.32;100.00
19831;BME280;10076;52.008;4.708;2024-02-21T01:25:59;102121.63;;;11.22;100.00
19831;BME280;10076;52.008;4.708;2024-02-21T01:28:25;102123.66;;;11.33;100.00
19831;BME280;10076;52.008;4.708;2024-02-21T01:30:50;102124.00;;;11.27;100.00
19831;BME280;10076;52.008;4.708;2024-02-21T01:33:16;102122.59;;;11.37;100.00
19831;BME280;10076;52.008;4.708;2024-02-21T01:35:41;102114.44;;;11.24;100.00
19831;BME280;10076;52.008;4.708;2024-02-21T01:38:07;102109.00;;;11.27;100.00
19831;BME280;10076;52.008;4.708;2024-02-21T01:40:32;102116.94;;;11.27;100.00
19831;BME280;10076;52.008;4.708;2024-02-21T01:42:58;102110.94;;;11.24;100.00
19831;BME280;10076;52.008;4.708;2024-02-21T01:45:23;102117.50;;;11.17;100.00
19831;BME280;10076;52.008;4.708;2024-02-21T01:47:49;102106.00;;;11.18;100.00
19831;BME280;10076;52.008;4.708;2024-02-21T01:50:16;102110.03;;;11.25;100.00
19831;BME280;10076;52.008;4.708;2024-02-21T01:52:46;102119.72;;;11.24;100.00
19831;BME280;10076;52.008;4.708;2024-02-21T01:55:14;102113.75;;;11.21;100.00
19831;BME280;10076;52.008;4.708;2024-02-21T01:57:40;102110.63;;;11.30;100.00
19831;BME280;10076;52.008;4.708;2024-02-21T02:00:07;102104.69;;;11.09;100.00
19831;BME280;10076;52.008;4.708;2024-02-21T02:02:32;102095.94;;;11.24;100.00
19831;BME280;10076;52.008;4.708;2024-02-21T02:04:58;102092.78;;;11.18;100.00
19831;BME280;10076;52.008;4.708;2024-02-21T02:07:23;102096.91;;;11.23;100.00
19831;BME280;10076;52.008;4.708;2024-02-21T02:09:49;102084.47;;;11.41;100.00
19831;BME280;10076;52.008;4.708;2024-02-21T02:12:14;102087.06;;;11.25;100.00
19831;BME280;10076;52.008;4.708;2024-02-21T02:14:40;102079.03;;;11.27;100.00
19831;BME280;10076;52.008;4.708;2024-02-21T02:17:05;102071.97;;;11.27;100.00
19831;BME280;10076;52.008;4.708;2024-02-21T02:19:31;102075.09;;;11.18;100.00
19831;BME280;10076;52.008;4.708;2024-02-21T02:22:06;102077.97;;;11.31;100.00
19831;BME280;10076;52.008;4.708;2024-02-21T02:24:34;102064.50;;;11.03;100.00
19831;BME280;10076;52.008;4.708;2024-02-21T02:27:00;102066.13;;;11.05;100.00
19831;BME280;10076;52.008;4.708;2024-02-21T02:29:25;102065.13;;;11.08;100.00
19831;BME280;10076;52.008;4.708;2024-02-21T02:31:51;102058.66;;;11.29;100.00
19831;BME280;10076;52.008;4.708;2024-02-21T02:34:16;102062.22;;;11.12;100.00
19831;BME280;10076;52.008;4.708;2024-02-21T02:36:41;102065.72;;;11.13;100.00
19831;BME280;10076;52.008;4.708;2024-02-21T02:39:06;102060.84;;;11.05;100.00
19831;BME280;10076;52.008;4.708;2024-02-21T02:41:35;102056.78;;;11.15;100.00
19831;BME280;10076;52.008;4.708;2024-02-21T02:44:00;102051.16;;;11.21;100.00
19831;BME280;10076;52.008;4.708;2024-02-21T02:46:25;102059.19;;;11.20;100.00
19831;BME280;10076;52.008;4.708;2024-02-21T02:48:51;102056.91;;;11.12;100.00
19831;BME280;10076;52.008;4.708;2024-02-21T02:51:16;102055.25;;;11.27;100.00
19831;BME280;10076;52.008;4.708;2024-02-21T02:53:41;102055.91;;;11.15;100.00
19831;BME280;10076;52.008;4.708;2024-02-21T02:56:07;102042.09;;;11.10;100.00
19831;BME280;10076;52.008;4.708;2024-02-21T02:58:32;102034.94;;;11.12;100.00
19831;BME280;10076;52.008;4.708;2024-02-21T03:00:57;102034.09;;;11.27;100.00
19831;BME280;10076;52.008;4.708;2024-02-21T03:03:22;102033.22;;;11.11;100.00
19831;BME280;10076;52.008;4.708;2024-02-21T03:05:48;102023.16;;;11.02;100.00
19831;BME280;10076;52.008;4.708;2024-02-21T03:08:13;102023.25;;;11.16;100.00
19831;BME280;10076;52.008;4.708;2024-02-21T03:10:39;102004.41;;;11.22;100.00
19831;BME280;10076;52.008;4.708;2024-02-21T03:13:05;101999.81;;;11.25;100.00
19831;BME280;10076;52.008;4.708;2024-02-21T03:15:30;102008.16;;;11.18;100.00
19831;BME280;10076;52.008;4.708;2024-02-21T03:17:55;101997.16;;;11.25;100.00
19831;BME280;10076;52.008;4.708;2024-02-21T03:20:20;102005.44;;;11.19;100.00
19831;BME280;10076;52.008;4.708;2024-02-21T03:22:46;101994.28;;;11.30;100.00
19831;BME280;10076;52.008;4.708;2024-02-21T03:25:11;101987.47;;;11.26;100.00
19831;BME280;10076;52.008;4.708;2024-02-21T03:27:38;101988.13;;;11.45;100.00
19831;BME280;10076;52.008;4.708;2024-02-21T03:30:03;101985.66;;;11.42;100.00
19831;BME280;10076;52.008;4.708;2024-02-21T03:32:29;101981.03;;;11.14;100.00
19831;BME280;10076;52.008;4.708;2024-02-21T03:34:55;101989.81;;;11.15;100.00
19831;BME280;10076;52.008;4.708;2024-02-21T03:37:20;101988.03;;;11.15;100.00
19831;BME280;10076;52.008;4.708;2024-02-21T03:39:45;101978.56;;;11.27;100.00
19831;BME280;10076;52.008;4.708;2024-02-21T03:42:11;101982.06;;;11.12;100.00
19831;BME280;10076;52.008;4.708;2024-02-21T03:44:36;101973.53;;;11.07;100.00
19831;BME280;10076;52.008;4.708;2024-02-21T03:47:01;101971.22;;;11.01;100.00
19831;BME280;10076;52.008;4.708;2024-02-21T03:49:27;101977.47;;;11.15;100.00
19831;BME280;10076;52.008;4.708;2024-02-21T03:51:52;101973.94;;;11.15;100.00
19831;BME280;10076;52.008;4.708;2024-02-21T03:54:18;101968.06;;;11.10;100.00
19831;BME280;10076;52.008;4.708;2024-02-21T03:56:43;101975.75;;;11.14;100.00
19831;BME280;10076;52.008;4.708;2024-02-21T03:59:08;101969.69;;;11.12;100.00
19831;BME280;10076;52.008;4.708;2024-02-21T04:01:35;101959.91;;;11.14;100.00
19831;BME280;10076;52.008;4.708;2024-02-21T04:04:00;101962.38;;;11.33;100.00
19831;BME280;10076;52.008;4.708;2024-02-21T04:06:26;101959.41;;;11.23;100.00
19831;BME280;10076;52.008;4.708;2024-02-21T04:08:51;101958.38;;;11.26;100.00
19831;BME280;10076;52.008;4.708;2024-02-21T04:11:16;101952.06;;;11.13;100.00
19831;BME280;10076;52.008;4.708;2024-02-21T04:13:44;101957.44;;;11.11;100.00
19831;BME280;10076;52.008;4.708;2024-02-21T04:16:09;101964.31;;;10.99;100.00
19831;BME280;10076;52.008;4.708;2024-02-21T04:18:34;101957.41;;;10.96;100.00
19831;BME280;10076;52.008;4.708;2024-02-21T04:20:59;101961.59;;;11.15;100.00
19831;BME280;10076;52.008;4.708;2024-02-21T04:23:25;101962.78;;;10.95;100.00
19831;BME280;10076;52.008;4.708;2024-02-21T04:25:50;101962.97;;;11.07;100.00
19831;BME280;10076;52.008;4.708;2024-02-21T04:28:15;101960.63;;;10.86;100.00
19831;BME280;10076;52.008;4.708;2024-02-21T04:30:40;101955.72;;;11.10;100.00
19831;BME280;10076;52.008;4.708;2024-02-21T04:33:06;101954.28;;;11.20;100.00
19831;BME280;10076;52.008;4.708;2024-02-21T04:35:31;101953.53;;;10.86;100.00
19831;BME280;10076;52.008;4.708;2024-02-21T04:37:56;101948.78;;;10.77;100.00
19831;BME280;10076;52.008;4.708;2024-02-21T04:40:22;101935.13;;;10.85;100.00
19831;BME280;10076;52.008;4.708;2024-02-21T04:42:47;101936.16;;;10.82;100.00
19831;BME280;10076;52.008;4.708;2024-02-21T04:45:13;101935.50;;;10.94;100.00
19831;BME280;10076;52.008;4.708;2024-02-21T04:47:38;101923.41;;;11.05;100.00
19831;BME280;10076;52.008;4.708;2024-02-21T04:50:03;101924.59;;;11.15;100.00
19831;BME280;10076;52.008;4.708;2024-02-21T04:52:29;101926.56;;;11.12;100.00
19831;BME280;10076;52.008;4.708;2024-02-21T04:54:54;101921.38;;;11.10;100.00
19831;BME280;10076;52.008;4.708;2024-02-21T04:57:20;101913.34;;;11.27;100.00
19831;BME280;10076;52.008;4.708;2024-02-21T04:59:46;101925.88;;;11.08;100.00
19831;BME280;10076;52.008;4.708;2024-02-21T05:02:13;101919.75;;;11.08;100.00
19831;BME280;10076;52.008;4.708;2024-02-21T05:04:38;101905.97;;;10.86;100.00
19831;BME280;10076;52.008;4.708;2024-02-21T05:07:04;101899.63;;;11.05;100.00
19831;BME280;10076;52.008;4.708;2024-02-21T05:09:29;101902.41;;;11.02;100.00
19831;BME280;10076;52.008;4.708;2024-02-21T05:11:55;101903.09;;;11.06;100.00
19831;BME280;10076;52.008;4.708;2024-02-21T05:14:20;101894.59;;;11.01;100.00
19831;BME280;10076;52.008;4.708;2024-02-21T05:16:45;101879.50;;;10.88;100.00
19831;BME280;10076;52.008;4.708;2024-02-21T05:19:10;101883.41;;;10.96;100.00
19831;BME280;10076;52.008;4.708;2024-02-21T05:21:36;101888.03;;;10.93;100.00
19831;BME280;10076;52.008;4.708;2024-02-21T05:24:01;101892.53;;;11.06;100.00
19831;BME280;10076;52.008;4.708;2024-02-21T05:26:27;101876.53;;;10.94;100.00
19831;BME280;10076;52.008;4.708;2024-02-21T05:28:53;101861.50;;;11.25;100.00
19831;BME280;10076;52.008;4.708;2024-02-21T05:31:19;101864.56;;;11.17;100.00
19831;BME280;10076;52.008;4.708;2024-02-21T05:33:45;101861.59;;;11.23;100.00
19831;BME280;10076;52.008;4.708;2024-02-21T05:36:11;101848.63;;;11.03;100.00
19831;BME280;10076;52.008;4.708;2024-02-21T05:38:36;101851.03;;;11.08;100.00
19831;BME280;10076;52.008;4.708;2024-02-21T05:41:02;101847.13;;;11.44;100.00
19831;BME280;10076;52.008;4.708;2024-02-21T05:43:27;101841.28;;;11.08;100.00
19831;BME280;10076;52.008;4.708;2024-02-21T05:45:53;101836.09;;;11.07;100.00
19831;BME280;10076;52.008;4.708;2024-02-21T05:48:18;101833.13;;;10.98;100.00
19831;BME280;10076;52.008;4.708;2024-02-21T05:50:43;101834.63;;;10.86;100.00
19831;BME280;10076;52.008;4.708;2024-02-21T05:53:09;101832.88;;;11.02;100.00
19831;BME280;10076;52.008;4.708;2024-02-21T05:55:35;101825.97;;;10.84;100.00
19831;BME280;10076;52.008;4.708;2024-02-21T05:58:00;101819.47;;;10.90;100.00
19831;BME280;10076;52.008;4.708;2024-02-21T06:00:26;101830.31;;;10.85;100.00
19831;BME280;10076;52.008;4.708;2024-02-21T06:02:51;101826.47;;;10.91;100.00
19831;BME280;10076;52.008;4.708;2024-02-21T06:05:16;101809.19;;;10.70;100.00
19831;BME280;10076;52.008;4.708;2024-02-21T06:07:42;101808.66;;;10.63;100.00
19831;BME280;10076;52.008;4.708;2024-02-21T06:10:07;101808.16;;;10.72;100.00
19831;BME280;10076;52.008;4.708;2024-02-21T06:12:33;101807.22;;;10.73;100.00
19831;BME280;10076;52.008;4.708;2024-02-21T06:14:59;101823.81;;;11.06;100.00
19831;BME280;10076;52.008;4.708;2024-02-21T06:17:24;101819.66;;;11.02;100.00
19831;BME280;10076;52.008;4.708;2024-02-21T06:19:49;101822.06;;;10.91;100.00
19831;BME280;10076;52.008;4.708;2024-02-21T06:22:15;101817.94;;;11.01;100.00
19831;BME280;10076;52.008;4.708;2024-02-21T06:24:40;101826.41;;;10.77;100.00
19831;BME280;10076;52.008;4.708;2024-02-21T06:27:06;101829.78;;;10.63;100.00
19831;BME280;10076;52.008;4.708;2024-02-21T06:29:32;101830.03;;;10.90;100.00
19831;BME280;10076;52.008;4.708;2024-02-21T06:31:57;101828.59;;;10.69;100.00
19831;BME280;10076;52.008;4.708;2024-02-21T06:34:22;101831.69;;;10.61;100.00
19831;BME280;10076;52.008;4.708;2024-02-21T06:36:49;101819.84;;;10.68;100.00
19831;BME280;10076;52.008;4.708;2024-02-21T06:39:14;101823.13;;;10.87;100.00
19831;BME280;10076;52.008;4.708;2024-02-21T06:41:39;101817.84;;;10.87;100.00
19831;BME280;10076;52.008;4.708;2024-02-21T06:44:05;101812.06;;;10.81;100.00
19831;BME280;10076;52.008;4.708;2024-02-21T06:46:31;101817.75;;;11.04;100.00
19831;BME280;10076;52.008;4.708;2024-02-21T06:48:59;101810.50;;;10.92;100.00
19831;BME280;10076;52.008;4.708;2024-02-21T06:51:25;101808.91;;;10.90;100.00
19831;BME280;10076;52.008;4.708;2024-02-21T06:53:51;101800.72;;;11.09;100.00
19831;BME280;10076;52.008;4.708;2024-02-21T06:56:16;101796.13;;;10.98;100.00
19831;BME280;10076;52.008;4.708;2024-02-21T06:58:42;101791.44;;;10.87;100.00
19831;BME280;10076;52.008;4.708;2024-02-21T07:01:07;101787.84;;;10.88;100.00
19831;BME280;10076;52.008;4.708;2024-02-21T07:03:33;101790.69;;;10.85;100.00
19831;BME280;10076;52.008;4.708;2024-02-21T07:05:58;101783.78;;;10.67;100.00
19831;BME280;10076;52.008;4.708;2024-02-21T07:08:23;101782.69;;;10.71;100.00
19831;BME280;10076;52.008;4.708;2024-02-21T07:10:49;101783.00;;;10.96;100.00
19831;BME280;10076;52.008;4.708;2024-02-21T07:13:14;101787.66;;;11.06;100.00
19831;BME280;10076;52.008;4.708;2024-02-21T07:15:41;101785.75;;;10.79;100.00
19831;BME280;10076;52.008;4.708;2024-02-21T07:18:06;101779.00;;;10.89;100.00
19831;BME280;10076;52.008;4.708;2024-02-21T07:20:31;101771.44;;;11.12;100.00
19831;BME280;10076;52.008;4.708;2024-02-21T07:22:59;101759.34;;;11.08;100.00
19831;BME280;10076;52.008;4.708;2024-02-21T07:25:24;101750.09;;;11.31;100.00
19831;BME280;10076;52.008;4.708;2024-02-21T07:27:49;101752.88;;;11.14;100.00
19831;BME280;10076;52.008;4.708;2024-02-21T07:30:14;101742.19;;;11.15;100.00
19831;BME280;10076;52.008;4.708;2024-02-21T07:32:40;101747.38;;;11.03;100.00
19831;BME280;10076;52.008;4.708;2024-02-21T07:35:05;101737.06;;;10.83;100.00
19831;BME280;10076;52.008;4.708;2024-02-21T07:37:31;101727.47;;;11.11;100.00
19831;BME280;10076;52.008;4.708;2024-02-21T07:39:56;101729.09;;;11.14;100.00
19831;BME280;10076;52.008;4.708;2024-02-21T07:42:21;101736.13;;;10.84;100.00
19831;BME280;10076;52.008;4.708;2024-02-21T07:44:47;101732.63;;;10.84;100.00
19831;BME280;10076;52.008;4.708;2024-02-21T07:47:12;101742.69;;;10.93;100.00
19831;BME280;10076;52.008;4.708;2024-02-21T07:49:41;101727.03;;;11.33;100.00
19831;BME280;10076;52.008;4.708;2024-02-21T07:52:06;101719.56;;;11.25;100.00
19831;BME280;10076;52.008;4.708;2024-02-21T07:54:32;101720.28;;;11.13;100.00
19831;BME280;10076;52.008;4.708;2024-02-21T07:56:58;101715.91;;;11.42;100.00
19831;BME280;10076;52.008;4.708;2024-02-21T07:59:23;101710.88;;;11.23;100.00
19831;BME280;10076;52.008;4.708;2024-02-21T08:01:48;101700.28;;;11.53;100.00
19831;BME280;10076;52.008;4.708;2024-02-21T08:04:14;101706.91;;;11.30;100.00
19831;BME280;10076;52.008;4.708;2024-02-21T08:06:39;101708.25;;;11.37;100.00
19831;BME280;10076;52.008;4.708;2024-02-21T08:09:04;101702.06;;;11.09;100.00
19831;BME280;10076;52.008;4.708;2024-02-21T08:11:30;101696.53;;;11.27;100.00
19831;BME280;10076;52.008;4.708;2024-02-21T08:13:55;101696.03;;;11.21;100.00
19831;BME280;10076;52.008;4.708;2024-02-21T08:16:20;101687.16;;;11.22;100.00
19831;BME280;10076;52.008;4.708;2024-02-21T08:18:46;101693.91;;;11.41;100.00
19831;BME280;10076;52.008;4.708;2024-02-21T08:21:11;101684.69;;;11.76;100.00
19831;BME280;10076;52.008;4.708;2024-02-21T08:23:36;101678.19;;;11.54;100.00
19831;BME280;10076;52.008;4.708;2024-02-21T08:26:04;101669.66;;;11.49;100.00
19831;BME280;10076;52.008;4.708;2024-02-21T08:28:30;101670.56;;;11.34;100.00
19831;BME280;10076;52.008;4.708;2024-02-21T08:30:55;101685.13;;;11.41;100.00
19831;BME280;10076;52.008;4.708;2024-02-21T08:33:21;101676.13;;;11.73;100.00
19831;BME280;10076;52.008;4.708;2024-02-21T08:35:50;101664.78;;;11.71;100.00
19831;BME280;10076;52.008;4.708;2024-02-21T08:38:15;101654.75;;;11.89;100.00
19831;BME280;10076;52.008;4.708;2024-02-21T08:40:41;101654.38;;;11.81;100.00
19831;BME280;10076;52.008;4.708;2024-02-21T08:43:06;101653.50;;;11.53;100.00
19831;BME280;10076;52.008;4.708;2024-02-21T08:45:31;101650.03;;;11.67;100.00
19831;BME280;10076;52.008;4.708;2024-02-21T08:47:57;101649.34;;;11.49;100.00
19831;BME280;10076;52.008;4.708;2024-02-21T08:50:22;101647.16;;;11.42;100.00
19831;BME280;10076;52.008;4.708;2024-02-21T08:52:47;101643.03;;;11.66;100.00
19831;BME280;10076;52.008;4.708;2024-02-21T08:55:12;101635.84;;;11.68;100.00
19831;BME280;10076;52.008;4.708;2024-02-21T08:57:38;101643.03;;;11.52;100.00
19831;BME280;10076;52.008;4.708;2024-02-21T09:00:05;101631.97;;;11.73;100.00
19831;BME280;10076;52.008;4.708;2024-02-21T09:02:40;101626.88;;;11.84;100.00
19831;BME280;10076;52.008;4.708;2024-02-21T09:05:06;101616.22;;;11.58;100.00
19831;BME280;10076;52.008;4.708;2024-02-21T09:07:31;101610.97;;;11.84;100.00
19831;BME280;10076;52.008;4.708;2024-02-21T09:09:57;101621.41;;;11.73;100.00
19831;BME280;10076;52.008;4.708;2024-02-21T09:12:22;101606.41;;;11.60;100.00
19831;BME280;10076;52.008;4.708;2024-02-21T09:14:48;101601.44;;;11.68;100.00
19831;BME280;10076;52.008;4.708;2024-02-21T09:17:16;101594.94;;;11.73;100.00
19831;BME280;10076;52.008;4.708;2024-02-21T09:19:42;101589.53;;;11.88;100.00
19831;BME280;10076;52.008;4.708;2024-02-21T09:22:07;101589.66;;;11.73;100.00
19831;BME280;10076;52.008;4.708;2024-02-21T09:24:33;101580.38;;;11.80;100.00
19831;BME280;10076;52.008;4.708;2024-02-21T09:26:58;101574.78;;;11.84;100.00
19831;BME280;10076;52.008;4.708;2024-02-21T09:29:23;101568.47;;;11.73;100.00
19831;BME280;10076;52.008;4.708;2024-02-21T09:31:48;101560.56;;;11.99;100.00
19831;BME280;10076;52.008;4.708;2024-02-21T09:34:14;101552.09;;;11.94;100.00
19831;BME280;10076;52.008;4.708;2024-02-21T09:36:39;101537.44;;;12.15;100.00
19831;BME280;10076;52.008;4.708;2024-02-21T09:39:05;101536.44;;;12.30;100.00
19831;BME280;10076;52.008;4.708;2024-02-21T09:41:31;101539.69;;;12.34;100.00
19831;BME280;10076;52.008;4.708;2024-02-21T09:43:59;101523.22;;;12.42;100.00
19831;BME280;10076;52.008;4.708;2024-02-21T09:46:39;101509.59;;;12.22;100.00
19831;BME280;10076;52.008;4.708;2024-02-21T09:49:40;101516.78;;;12.59;100.00
19831;BME280;10076;52.008;4.708;2024-02-21T09:52:01;101487.09;;;12.54;100.00
19831;BME280;10076;52.008;4.708;2024-02-21T09:54:29;101488.91;;;12.41;100.00
19831;BME280;10076;52.008;4.708;2024-02-21T09:56:56;101485.41;;;12.53;100.00
19831;BME280;10076;52.008;4.708;2024-02-21T09:59:22;101487.63;;;12.84;100.00
19831;BME280;10076;52.008;4.708;2024-02-21T10:01:47;101481.75;;;12.93;100.00
19831;BME280;10076;52.008;4.708;2024-02-21T10:04:13;101476.63;;;12.90;100.00
19831;BME280;10076;52.008;4.708;2024-02-21T10:06:38;101501.00;;;13.19;100.00
19831;BME280;10076;52.008;4.708;2024-02-21T10:09:06;101471.28;;;13.27;100.00
19831;BME280;10076;52.008;4.708;2024-02-21T10:11:31;101464.69;;;13.32;100.00
19831;BME280;10076;52.008;4.708;2024-02-21T10:14:06;101449.16;;;13.15;100.00
19831;BME280;10076;52.008;4.708;2024-02-21T10:16:32;101441.81;;;13.19;100.00
19831;BME280;10076;52.008;4.708;2024-02-21T10:18:59;101427.69;;;13.18;100.00
19831;BME280;10076;52.008;4.708;2024-02-21T10:21:24;101421.19;;;13.35;100.00
19831;BME280;10076;52.008;4.708;2024-02-21T10:23:51;101395.69;;;13.09;100.00
19831;BME280;10076;52.008;4.708;2024-02-21T10:26:19;101378.00;;;13.10;100.00
19831;BME280;10076;52.008;4.708;2024-02-21T10:28:45;101365.44;;;13.24;100.00
19831;BME280;10076;52.008;4.708;2024-02-21T10:31:21;101374.84;;;13.28;100.00
19831;BME280;10076;52.008;4.708;2024-02-21T10:33:56;101393.03;;;13.09;100.00
19831;BME280;10076;52.008;4.708;2024-02-21T10:36:23;101407.88;;;13.11;100.00
19831;BME280;10076;52.008;4.708;2024-02-21T10:38:49;101416.31;;;12.81;100.00
19831;BME280;10076;52.008;4.708;2024-02-21T10:41:15;101428.28;;;12.74;100.00
19831;BME280;10076;52.008;4.708;2024-02-21T10:43:49;101420.84;;;12.79;100.00
19831;BME280;10076;52.008;4.708;2024-02-21T10:46:18;101425.56;;;12.50;100.00
19831;BME280;10076;52.008;4.708;2024-02-21T10:48:45;101416.72;;;12.75;100.00
19831;BME280;10076;52.008;4.708;2024-02-21T10:51:20;101424.34;;;12.67;100.00
19831;BME280;10076;52.008;4.708;2024-02-21T10:56:34;101413.03;;;12.40;100.00
19831;BME280;10076;52.008;4.708;2024-02-21T10:59:04;101399.47;;;12.32;100.00
19831;BME280;10076;52.008;4.708;2024-02-21T11:01:30;101397.56;;;12.22;100.00
19831;BME280;10076;52.008;4.708;2024-02-21T11:04:07;101402.59;;;12.00;100.00
19831;BME280;10076;52.008;4.708;2024-02-21T11:06:35;101396.00;;;11.80;100.00
19831;BME280;10076;52.008;4.708;2024-02-21T11:11:27;101386.13;;;12.21;100.00
19831;BME280;10076;52.008;4.708;2024-02-21T11:14:06;101383.56;;;12.32;100.00
19831;BME280;10076;52.008;4.708;2024-02-21T11:16:36;101372.88;;;12.46;100.00
19831;BME280;10076;52.008;4.708;2024-02-21T11:21:37;101335.13;;;12.67;100.00
19831;BME280;10076;52.008;4.708;2024-02-21T11:24:03;101323.13;;;12.87;100.00
19831;BME280;10076;52.008;4.708;2024-02-21T11:26:29;101320.28;;;13.13;100.00
19831;BME280;10076;52.008;4.708;2024-02-21T11:29:01;101314.75;;;13.16;100.00
19831;BME280;10076;52.008;4.708;2024-02-21T11:31:41;101313.72;;;13.29;100.00
19831;BME280;10076;52.008;4.708;2024-02-21T11:34:11;101292.59;;;13.51;100.00
19831;BME280;10076;52.008;4.708;2024-02-21T11:36:46;101279.13;;;13.65;100.00
19831;BME280;10076;52.008;4.708;2024-02-21T11:39:12;101271.94;;;13.44;100.00
19831;BME280;10076;52.008;4.708;2024-02-21T11:41:37;101266.63;;;13.44;100.00
19831;BME280;10076;52.008;4.708;2024-02-21T11:44:03;101284.56;;;13.64;100.00
19831;BME280;10076;52.008;4.708;2024-02-21T11:46:29;101266.41;;;13.47;100.00
19831;BME280;10076;52.008;4.708;2024-02-21T11:48:54;101259.09;;;13.27;100.00
19831;BME280;10076;52.008;4.708;2024-02-21T11:51:25;101262.50;;;13.29;100.00
19831;BME280;10076;52.008;4.708;2024-02-21T11:53:52;101261.00;;;13.14;100.00
19831;BME280;10076;52.008;4.708;2024-02-21T11:56:19;101271.28;;;13.29;100.00
19831;BME280;10076;52.008;4.708;2024-02-21T11:58:46;101251.53;;;13.33;100.00
19831;BME280;10076;52.008;4.708;2024-02-21T12:01:13;101239.81;;;12.78;100.00
19831;BME280;10076;52.008;4.708;2024-02-21T12:03:38;101231.41;;;13.08;100.00
19831;BME280;10076;52.008;4.708;2024-02-21T12:06:06;101221.50;;;12.99;100.00
19831;BME280;10076;52.008;4.708;2024-02-21T12:08:43;101219.81;;;12.98;100.00
19831;BME280;10076;52.008;4.708;2024-02-21T12:11:21;101207.75;;;12.94;100.00
19831;BME280;10076;52.008;4.708;2024-02-21T12:13:47;101190.84;;;12.48;100.00
19831;BME280;10076;52.008;4.708;2024-02-21T12:16:16;101186.75;;;12.67;100.00
19831;BME280;10076;52.008;4.708;2024-02-21T12:18:43;101192.44;;;12.50;100.00
19831;BME280;10076;52.008;4.708;2024-02-21T12:21:09;101171.91;;;12.41;100.00
19831;BME280;10076;52.008;4.708;2024-02-21T12:23:38;101162.56;;;12.48;100.00
19831;BME280;10076;52.008;4.708;2024-02-21T12:26:03;101158.00;;;12.74;100.00
19831;BME280;10076;52.008;4.708;2024-02-21T12:28:30;101141.84;;;12.77;100.00
19831;BME280;10076;52.008;4.708;2024-02-21T12:30:55;101130.25;;;12.67;100.00
19831;BME280;10076;52.008;4.708;2024-02-21T12:33:21;101118.81;;;12.66;100.00
19831;BME280;10076;52.008;4.708;2024-02-21T12:35:46;101113.81;;;12.51;100.00
19831;BME280;10076;52.008;4.708;2024-02-21T12:38:12;101102.91;;;12.55;100.00
19831;BME280;10076;52.008;4.708;2024-02-21T12:40:38;101092.16;;;12.57;100.00
19831;BME280;10076;52.008;4.708;2024-02-21T12:43:04;101078.28;;;12.42;100.00
19831;BME280;10076;52.008;4.708;2024-02-21T12:45:29;101084.63;;;12.40;100.00